Canmore, Canada
Current Conditions -  °F | °C
As of 6:00 PM on Friday 24 Oct 2014 (Local Time) from CYBW Reporting Station
Clear Clear  
Wind Chill:   Ceiling: Unl
Heat Index:   Visibility: 9mi
Dew Point: -10°   Wind: 16mph
Humidity: 31%   Direction: 280°W
Pressure: 29.97"   Gusts: NA
Location:  51.09°N, 115.36°W
Report Text: CYBW 250000Z AUTO 28014KT 9SM CLR 06/M10 A2997 RMK SLP186
Loading
Personal Weather Stations






























Interactive Weather Map
Tropical Storm Tracking
New forecast layout! Learn more

10-Day Weather Forecast

Advertisements
Track Severe Weather on mobile